• Join FlightAware (Why Join?)
  • Login
  • US Flag 
07:10PM EDT


 

Airport Tracker/Info


-or-


 

Live Flight TrackerFlight Track Log ✈ SWA1031 ✈ 07-May-2013 ✈ KMDW - KSAT

Flight Track Log - Related Links

Times and Time Zones

All times are in EDT time to prevent confusion due to time zone crossing. See the SWA1031 flight status page for this flight to view local times or setup timezone preferences in your user account.

Time Position Orientation Groundspeed Altitude Reporting Facility
EDT Latitude Longitude Course Direction KTS MPH feet Rate Location/Type
09:24PM 41.8000 -87.7167 207° Southwest 162 186 2,000  Level Chicago TRACON
09:26PM 41.7228 -87.7372 191° South 240 276 6,200 2,520 Climbing Chicago Center
09:27PM 41.6689 -87.8122 226° Southwest 272 313 9,300 2,820 Climbing Chicago Center
09:28PM 41.5983 -87.9086 226° Southwest 303 349 12,100 2,640 Climbing Chicago Center
09:29PM 41.5186 -87.9711 210° Southwest 340 391 14,800 2,880 Climbing Chicago Center
09:30PM 41.3426 -88.1938 207° Southwest  Level FlightAware Approximate
09:30PM 41.4378 -88.0203 205° Southwest 357 411 18,100  Level Chicago Center
09:31PM 41.3239 -88.0858 203° Southwest 368 423 22,100 3,180 Climbing Chicago Center
09:32PM 41.2247 -88.1439 204° Southwest 383 441 24,700 2,460 Climbing Chicago Center
09:33PM 41.1175 -88.2061 204° Southwest 409 471 27,200 2,340 Climbing Chicago Center
09:34PM 41.0094 -88.2689 204° Southwest 423 487 29,500 2,040 Climbing Chicago Center
09:35PM 40.8986 -88.3328 204° Southwest 432 497 31,500 2,040 Climbing Chicago Center
09:36PM 40.7853 -88.3997 204° Southwest 444 511 33,800 2,340 Climbing Chicago Center
09:37PM 40.6503 -88.4769 203° Southwest 443 510 36,400 2,040 Climbing Chicago Center
09:38PM 40.5397 -88.5383 203° Southwest 437 503 38,000 1,140 Climbing Chicago Center
09:39PM 40.4275 -88.6053 204° Southwest 441 507 38,800 960 Climbing Chicago Center
09:40PM 40.3150 -88.6719 204° Southwest 446 513 40,000 540 Climbing Chicago Center
09:41PM 40.2278 -88.7858 225° Southwest 441 507 40,000  Level Chicago Center
09:42PM 40.1403 -88.8956 224° Southwest 438 504 40,000  Level Chicago Center
09:43PM 40.0686 -88.9833 223° Southwest 437 503 40,000  Level Kansas City Center
09:44PM 39.9817 -89.0928 224° Southwest 434 499 40,000  Level Kansas City Center
09:45PM 39.8947 -89.2025 224° Southwest 433 498 40,000  Level Kansas City Center
09:46PM 39.8078 -89.3131 224° Southwest 434 499 40,000  Level Kansas City Center
09:47PM 39.7028 -89.4444 224° Southwest 434 499 40,000  Level Kansas City Center
09:48PM 39.6167 -89.5528 224° Southwest 435 501 40,000  Level Kansas City Center
09:49PM 39.5289 -89.6617 224° Southwest 438 504 40,000  Level Kansas City Center
09:50PM 39.4425 -89.7697 224° Southwest 435 501 40,000  Level Kansas City Center
09:51PM 39.3556 -89.8769 224° Southwest 434 499 40,000  Level Kansas City Center
09:52PM 39.2692 -89.9833 224° Southwest 432 497 40,000  Level Kansas City Center
09:54PM 39.1806 -90.0931 224° Southwest 438 504 40,000  Level Kansas City Center
09:55PM 39.0931 -90.2006 224° Southwest 438 504 40,000  Level Kansas City Center
09:56PM 38.9867 -90.3306 224° Southwest 442 509 40,000  Level Kansas City Center
09:57PM 38.8994 -90.4350 223° Southwest 437 503 40,000  Level Kansas City Center
09:58PM 38.8108 -90.5431 224° Southwest 436 502 40,000  Level Kansas City Center
09:59PM 38.7153 -90.6506 221° Southwest 450 518 40,000  Level Kansas City Center
10:00PM 38.6297 -90.7486 222° Southwest 443 510 40,000  Level Kansas City Center
10:01PM 38.5211 -90.8744 222° Southwest 443 510 40,000  Level Kansas City Center
10:02PM 38.4297 -90.9781 222° Southwest 443 510 40,000  Level Kansas City Center
10:03PM 38.3331 -91.0733 218° Southwest 440 506 40,000  Level Kansas City Center
10:04PM 38.2361 -91.1664 217° Southwest 438 504 40,000  Level Kansas City Center
10:05PM 38.1308 -91.2708 218° Southwest 436 502 40,000  Level Kansas City Center
10:06PM 38.0339 -91.3639 217° Southwest 435 501 40,000  Level Kansas City Center
10:07PM 37.9403 -91.4572 218° Southwest 429 494 40,000  Level Kansas City Center
10:08PM 37.8433 -91.5492 217° Southwest 431 496 40,000  Level Kansas City Center
10:09PM 37.7478 -91.6431 218° Southwest 432 497 40,000  Level Kansas City Center
10:10PM 37.6519 -91.7369 218° Southwest 432 497 40,000  Level Kansas City Center
10:11PM 37.5539 -91.8297 217° Southwest 434 499 40,000  Level Kansas City Center
10:12PM 37.4567 -91.9231 217° Southwest 434 499 40,000  Level Kansas City Center
10:13PM 37.3583 -92.0181 218° Southwest 438 504 40,000  Level Kansas City Center
10:14PM 37.2611 -92.1111 217° Southwest 438 504 40,000  Level Kansas City Center
10:15PM 37.1628 -92.2008 216° Southwest 435 501 40,000  Level Kansas City Center
10:16PM 37.0636 -92.2942 217° Southwest 439 505 40,000  Level Kansas City Center
10:17PM 36.9661 -92.3875 217° Southwest 440 506 40,000  Level Kansas City Center
10:18PM 36.8694 -92.4778 217° Southwest 434 499 40,000  Level Kansas City Center
10:19PM 36.7939 -92.5489 217° Southwest 440 506 40,000  Level Memphis Center
10:20PM 36.6986 -92.6369 217° Southwest 440 506 40,000  Level Memphis Center
10:21PM 36.6031 -92.7297 218° Southwest 440 506 40,000  Level Memphis Center
10:22PM 36.5075 -92.8147 216° Southwest 440 506 40,000  Level Memphis Center
10:23PM 36.4119 -92.9047 217° Southwest 440 506 40,000  Level Memphis Center
10:24PM 36.3164 -92.9919 216° Southwest 440 506 40,000  Level Memphis Center
10:25PM 36.2208 -93.0789 216° Southwest 440 506 40,000  Level Memphis Center
10:26PM 36.1228 -93.1681 216° Southwest 440 506 40,000  Level Memphis Center
10:27PM 36.0250 -93.2572 216° Southwest 440 506 40,000  Level Memphis Center
10:28PM 35.9289 -93.3433 216° Southwest 440 506 40,000  Level Memphis Center
10:29PM 35.8350 -93.4322 218° Southwest 440 506 40,000  Level Memphis Center
10:30PM 35.7350 -93.5181 215° Southwest 440 506 40,000  Level Memphis Center
10:31PM 35.6389 -93.6064 217° Southwest 440 506 40,000  Level Memphis Center
10:32PM 35.5428 -93.6919 216° Southwest 440 506 40,000  Level Memphis Center
10:33PM 35.4444 -93.7797 216° Southwest 445 512 40,000  Level Memphis Center
10:34PM 35.3461 -93.8672 216° Southwest 445 512 40,000  Level Memphis Center
10:35PM 35.2497 -93.9522 216° Southwest 440 506 40,000  Level Memphis Center
10:36PM 35.1514 -94.0394 216° Southwest 440 506 40,000  Level Memphis Center
10:37PM 35.0656 -94.1194 217° Southwest 440 506 40,000  Level Memphis Center
10:38PM 34.8894 -94.2747 216° Southwest 437 503 40,000  Level Fort Worth Center
10:39PM 34.8056 -94.3486 216° Southwest 431 496 40,000  Level Fort Worth Center
10:40PM 34.7097 -94.4353 217° Southwest 431 496 40,000  Level Fort Worth Center
10:41PM 34.6136 -94.5169 215° Southwest 431 496 40,000  Level Fort Worth Center
10:42PM 34.5156 -94.6033 216° Southwest 431 496 40,000  Level Fort Worth Center
10:43PM 34.4192 -94.6847 215° Southwest 431 496 40,000  Level Fort Worth Center
10:44PM 34.3208 -94.7706 216° Southwest 437 503 40,000  Level Fort Worth Center
10:45PM 34.2225 -94.8567 216° Southwest 437 503 40,000  Level Fort Worth Center
10:46PM 34.1239 -94.9397 215° Southwest 437 503 40,000  Level Fort Worth Center
10:47PM 34.0275 -95.0228 216° Southwest 443 510 40,000  Level Fort Worth Center
10:48PM 33.9311 -95.1056 215° Southwest 443 510 40,000  Level Fort Worth Center
10:49PM 33.8322 -95.1906 216° Southwest 443 510 40,000  Level Fort Worth Center
10:50PM 33.7356 -95.2706 215° Southwest 443 510 40,000  Level Fort Worth Center
10:51PM 33.6411 -95.3500 215° Southwest 438 504 40,000  Level Fort Worth Center
10:52PM 33.5442 -95.4297 214° Southwest 433 498 40,000  Level Fort Worth Center
10:53PM 33.4472 -95.5114 215° Southwest 427 491 40,000  Level Fort Worth Center
10:54PM 33.3506 -95.5931 215° Southwest 421 484 40,000  Level Fort Worth Center
10:55PM 33.2494 -95.6797 216° Southwest 415 478 40,000  Level Fort Worth Center
10:56PM 33.1647 -95.7508 215° Southwest 421 484 40,000  Level Fort Worth Center
10:57PM 33.0572 -95.8394 215° Southwest 421 484 40,000  Level Fort Worth Center
10:58PM 32.9706 -95.9103 214° Southwest 421 484 40,000  Level Fort Worth Center
10:59PM 32.8672 -95.9961 215° Southwest 421 484 40,000  Level Fort Worth Center
11:00PM 32.7803 -96.0692 215° Southwest 421 484 40,000  Level Fort Worth Center
11:01PM 32.6767 -96.1547 215° Southwest 421 484 40,000  Level Fort Worth Center
11:02PM 32.5897 -96.2250 214° Southwest 421 484 40,000  Level Fort Worth Center
11:03PM 32.4819 -96.3125 214° Southwest 421 484 40,000  Level Fort Worth Center
11:04PM 32.3928 -96.3775 212° Southwest 427 491 40,000  Level Fort Worth Center
11:05PM 32.2828 -96.4550 211° Southwest 427 491 40,000  Level Fort Worth Center
11:06PM 32.1853 -96.5322 214° Southwest 422 486 40,000  Level Fort Worth Center
11:08PM 32.0353 -96.6325 210° Southwest 425 489 40,000  Level Houston Center
11:09PM 31.9269 -96.6950 206° Southwest 429 494 40,000  Level Houston Center
11:10PM 31.8178 -96.7558 205° Southwest 429 494 40,000  Level Houston Center
11:11PM 31.7081 -96.8142 204° Southwest 429 494 40,000  Level Houston Center
11:12PM 31.5994 -96.8736 205° Southwest 427 491 40,000  Level Houston Center
11:13PM 31.4903 -96.9331 205° Southwest 427 491 40,000  Level Houston Center
11:14PM 31.3825 -96.9922 205° Southwest 424 488 40,000  Level Houston Center
11:15PM 31.2733 -97.0519 205° Southwest 426 490 40,000 -60 Level Houston Center
11:16PM 31.1650 -97.1100 205° Southwest 424 488 39,900 -600 Descending Houston Center
11:17PM 31.0547 -97.1689 205° Southwest 428 493 38,900 -1,020 Descending Houston Center
11:18PM 30.9406 -97.2292 204° Southwest 435 501 37,900 -1,020 Descending Houston Center
11:19PM 30.8300 -97.2894 205° Southwest 439 505 36,900 -960 Descending Houston Center
11:20PM 30.7128 -97.3514 204° Southwest 429 494 36,000 -480 Descending Houston Center
11:21PM 30.6056 -97.4092 205° Southwest 421 484 36,000 -1,020 Level Houston Center
11:22PM 30.4961 -97.4669 204° Southwest 426 490 34,000 -3,300 Descending Houston Center
11:23PM 30.3814 -97.5292 205° Southwest 447 514 29,400 -4,320 Descending Houston Center
11:24PM 30.2722 -97.6033 210° Southwest 449 517 25,300 -4,080 Descending Houston Center
11:24PM 30.2433 -97.6242 212° Southwest 459 528 24,200 -4,320 Descending Houston Center
11:25PM 30.1589 -97.6836 211° Southwest 447 514 21,100 -3,720 Descending Houston Center
11:26PM 30.0661 -97.7461 210° Southwest 434 499 18,200 -3,240 Descending Houston Center
11:27PM 29.9678 -97.8142 211° Southwest 410 472 15,000 -2,580 Descending Houston Center
11:28PM 29.8886 -97.8869 219° Southwest 368 423 13,000 -1,620 Descending Houston Center
11:29PM 29.8506 -97.9714 243° Southwest 301 346 11,900 -1,260 Descending Houston Center
11:30PM 29.8144 -98.0578 244° Southwest 289 333 10,600 -1,380 Descending Houston Center
11:30PM 29.8069 -98.0764 245° Southwest 288 331 10,200 -1,620 Descending Houston Center
11:31PM 29.7800 -98.1367 243° Southwest 276 318 9,000 -1,680 Descending Houston Center
11:31PM 29.7706 -98.1617 246° West 276 318 8,500 -1,920 Descending Houston Center
11:32PM 29.7492 -98.2103 243° Southwest 275 316 7,300 -1,740 Descending Houston Center
11:32PM 29.7367 -98.2417 245° Southwest 279 321 6,800 -1,380 Descending Houston Center
11:33PM 29.7167 -98.2914 245° Southwest 277 319 5,900 -1,500 Descending Houston Center
11:33PM 29.7044 -98.3203 244° Southwest 273 314 5,300 -2,100 Descending Houston Center
11:34PM 29.6861 -98.3672 246° West 265 305 3,800 -1,980 Descending Houston Center
11:34PM 29.6750 -98.3967 247° West 263 303 3,300 -600 Descending Houston Center
11:35PM 29.6578 -98.4478 249° West 249 287 3,200 -300 Descending Houston Center
11:35PM 29.6486 -98.4667 241° Southwest 253 291 3,000 -420 Descending Houston Center
11:36PM 29.6317 -98.5061 244° Southwest 189 217 2,800 -240 Descending Houston Center
11:36PM 29.6192 -98.5203 225° Southwest 177 204 2,800 -240 Level Houston Center
11:37PM 29.5986 -98.5364 214° Southwest 129 148 2,600 -600 Descending Houston Center
11:37PM 29.5847 -98.5347 174° South 138 159 2,200 -1,020 Descending Houston Center
11:38PM 29.5700 -98.5206 140° Southeast 108 124 1,600 -900 Descending Houston Center
11:38PM 29.5622 -98.5100 130° Southeast 114 131 1,300 -660 Descending Houston Center
11:39PM 29.5406 -98.4808 130° Southeast 120 138 700 -600 Descending Houston Center
11:41PM 29.5340 -98.4691 198° South  Level Estimated
11:48PM 29.5333 -98.4667 16° North  Level FlightAware Approximate